createdAt,value
2018-11-06T00:00:51.150Z,97174.97
2018-11-06T00:01:58.103Z,97179.17
2018-11-06T00:03:06.156Z,97181.98
2018-11-06T00:04:08.914Z,97183.34
2018-11-06T00:05:12.675Z,97180.77
2018-11-06T00:06:15.435Z,97185.52
2018-11-06T00:07:18.161Z,97188.46
2018-11-06T00:08:21.135Z,97190.05
2018-11-06T00:09:24.212Z,97185.31
2018-11-06T00:10:26.946Z,97191.88
2018-11-06T00:11:29.703Z,97184.16
2018-11-06T00:12:32.838Z,97189.44
2018-11-06T00:13:35.640Z,97192.19
2018-11-06T00:14:38.370Z,97190.39
2018-11-06T00:15:42.448Z,97187.64
2018-11-06T00:16:46.409Z,97181.98
2018-11-06T00:17:49.214Z,97186.73
2018-11-06T00:18:54.911Z,97178.49
2018-11-06T00:19:58.027Z,97183.95
2018-11-06T00:21:01.848Z,97181.69
2018-11-06T00:22:06.171Z,97177.08
2018-11-06T00:23:09.046Z,97183.23
2018-11-06T00:24:11.804Z,97180.25
2018-11-06T00:25:15.999Z,97177.23
2018-11-06T00:26:19.527Z,97172.36
2018-11-06T00:27:22.270Z,97182.86
2018-11-06T00:28:28.466Z,97179.03
2018-11-06T00:29:31.190Z,97179.47
2018-11-06T00:30:33.952Z,97184.16
2018-11-06T00:31:36.685Z,97181.11
2018-11-06T00:32:40.676Z,97185.62
2018-11-06T00:33:43.453Z,97183.87
2018-11-06T00:34:46.478Z,97186.00
2018-11-06T00:35:49.215Z,97186.00
2018-11-06T00:36:51.985Z,97186.92
2018-11-06T00:37:54.794Z,97189.52
2018-11-06T00:38:59.263Z,97190.12
2018-11-06T00:40:02.029Z,97196.25
2018-11-06T00:41:05.070Z,97195.44
2018-11-06T00:42:08.019Z,97193.94
2018-11-06T00:43:10.981Z,97197.98
2018-11-06T00:44:13.720Z,97191.16
2018-11-06T00:45:17.399Z,97194.13
2018-11-06T00:46:20.141Z,97201.23
2018-11-06T00:47:23.255Z,97191.07
2018-11-06T00:48:26.024Z,97192.63
2018-11-06T00:49:30.806Z,97192.52
2018-11-06T00:50:33.581Z,97189.66
2018-11-06T00:51:36.456Z,97189.42
2018-11-06T00:52:39.878Z,97184.98
2018-11-06T00:53:42.937Z,97187.34
2018-11-06T00:54:45.735Z,97183.67
2018-11-06T00:55:48.524Z,97181.87
2018-11-06T00:56:51.302Z,97185.16
2018-11-06T00:57:54.085Z,97182.87
2018-11-06T00:58:56.900Z,97180.02
2018-11-06T01:00:00.377Z,97185.55
2018-11-06T01:01:03.147Z,97184.53
2018-11-06T01:02:05.941Z,97185.52
2018-11-06T01:03:08.949Z,97190.48
2018-11-06T01:04:13.852Z,97183.14
2018-11-06T01:05:17.337Z,97184.98
2018-11-06T01:06:20.539Z,97188.61
2018-11-06T01:07:23.403Z,97187.84
2018-11-06T01:08:26.207Z,97185.34
2018-11-06T01:09:29.009Z,97181.27
2018-11-06T01:10:31.794Z,97179.83
2018-11-06T01:11:34.587Z,97183.80
2018-11-06T01:12:38.196Z,97182.42
2018-11-06T01:13:41.031Z,97180.73
2018-11-06T01:14:43.776Z,97182.42
2018-11-06T01:15:46.542Z,97180.83
2018-11-06T01:16:49.397Z,97181.97
2018-11-06T01:17:52.353Z,97187.89
2018-11-06T01:18:55.105Z,97187.41
2018-11-06T01:20:00.155Z,97193.00
2018-11-06T01:21:03.247Z,97194.03
2018-11-06T01:22:06.035Z,97188.92
2018-11-06T01:23:08.805Z,97190.36
2018-11-06T01:24:11.631Z,97188.92
2018-11-06T01:25:15.113Z,97197.03
2018-11-06T01:26:17.894Z,97195.92
2018-11-06T01:27:20.677Z,97200.79
2018-11-06T01:28:23.818Z,97197.08
2018-11-06T01:29:26.646Z,97198.27
2018-11-06T01:30:29.412Z,97197.37
2018-11-06T01:31:32.581Z,97192.98
2018-11-06T01:32:35.327Z,97194.91
2018-11-06T01:33:38.057Z,97191.65
2018-11-06T01:34:40.823Z,97190.30
2018-11-06T01:35:43.594Z,97190.05
2018-11-06T01:36:46.330Z,97189.36
2018-11-06T01:37:49.552Z,97194.07
2018-11-06T01:38:52.307Z,97197.69
2018-11-06T01:39:55.063Z,97195.92
2018-11-06T01:40:57.901Z,97196.02
2018-11-06T01:42:01.026Z,97202.53
2018-11-06T01:43:03.761Z,97199.03
2018-11-06T01:44:07.007Z,97205.16
2018-11-06T01:45:09.870Z,97206.67
2018-11-06T01:46:12.607Z,97205.65
2018-11-06T01:47:15.386Z,97212.34
2018-11-06T01:48:18.403Z,97202.72
2018-11-06T01:49:21.456Z,97210.98
2018-11-06T01:50:24.667Z,97208.85
2018-11-06T01:51:27.440Z,97213.69
2018-11-06T01:52:30.172Z,97210.66
2018-11-06T01:53:32.968Z,97207.87
2018-11-06T01:54:35.806Z,97205.16
2018-11-06T01:55:40.542Z,97210.81
2018-11-06T01:56:43.861Z,97214.16
2018-11-06T01:57:46.956Z,97209.13
2018-11-06T01:58:49.698Z,97211.11
2018-11-06T01:59:52.417Z,97211.02
2018-11-06T02:00:55.136Z,97204.80
2018-11-06T02:01:57.943Z,97207.92
2018-11-06T02:03:01.191Z,97208.58
2018-11-06T02:04:03.965Z,97200.55
2018-11-06T02:05:06.692Z,97209.30
2018-11-06T02:06:09.433Z,97204.23
2018-11-06T02:07:13.371Z,97200.75
2018-11-06T02:08:16.438Z,97202.17
2018-11-06T02:09:19.467Z,97195.42
2018-11-06T02:10:22.271Z,97208.86
2018-11-06T02:11:25.013Z,97201.45
2018-11-06T02:12:27.754Z,97202.17
2018-11-06T02:13:30.483Z,97209.23
2018-11-06T02:14:33.206Z,97206.40
2018-11-06T02:15:36.269Z,97210.28
2018-11-06T02:16:39.045Z,97218.25
2018-11-06T02:17:43.781Z,97222.80
2018-11-06T02:18:46.582Z,97222.55
2018-11-06T02:19:49.360Z,97222.14
2018-11-06T02:20:52.113Z,97216.90
2018-11-06T02:21:55.142Z,97214.93
2018-11-06T02:22:59.925Z,97219.03
2018-11-06T02:24:08.127Z,97213.66
2018-11-06T02:25:11.629Z,97210.63
2018-11-06T02:26:15.305Z,97209.66
2018-11-06T02:27:18.269Z,97208.14
2018-11-06T02:28:21.333Z,97203.63
2018-11-06T02:29:24.059Z,97199.41
2018-11-06T02:30:26.772Z,97201.17
2018-11-06T02:31:31.138Z,97202.04
2018-11-06T02:32:34.541Z,97198.72
2018-11-06T02:33:37.273Z,97196.72
2018-11-06T02:34:42.452Z,97191.96
2018-11-06T02:37:23.002Z,97197.94
2018-11-06T02:38:25.779Z,97203.04
2018-11-06T02:39:30.239Z,97201.03
2018-11-06T02:40:34.056Z,97201.29
2018-11-06T02:41:36.825Z,97205.59
2018-11-06T02:42:40.641Z,97213.25
2018-11-06T02:43:43.437Z,97208.01
2018-11-06T02:44:47.496Z,97207.35
2018-11-06T02:45:52.142Z,97212.80
2018-11-06T02:46:55.162Z,97210.05
2018-11-06T02:47:58.458Z,97210.79
2018-11-06T02:49:01.190Z,97205.55
2018-11-06T02:50:03.937Z,97208.55
2018-11-06T02:51:06.714Z,97200.81
2018-11-06T02:52:09.936Z,97201.83
2018-11-06T02:53:13.192Z,97208.38
2018-11-06T02:54:15.962Z,97204.24
2018-11-06T02:55:18.730Z,97203.67
2018-11-06T02:56:21.485Z,97202.24
2018-11-06T02:57:24.215Z,97200.59
2018-11-06T02:58:57.583Z,97203.67
2018-11-06T03:00:00.590Z,97196.75
2018-11-06T03:01:05.032Z,97204.69
2018-11-06T03:02:07.777Z,97202.86
2018-11-06T03:03:10.496Z,97205.23
2018-11-06T03:04:13.794Z,97205.73
2018-11-06T03:05:17.970Z,97208.89
2018-11-06T03:06:20.869Z,97212.46
2018-11-06T03:07:23.699Z,97212.31
2018-11-06T03:08:26.784Z,97206.27
2018-11-06T03:09:29.707Z,97205.41
2018-11-06T03:10:32.572Z,97209.87
2018-11-06T03:11:35.513Z,97202.14
2018-11-06T03:12:41.783Z,97206.03
2018-11-06T03:13:44.540Z,97200.02
2018-11-06T03:14:47.328Z,97205.17
2018-11-06T03:15:50.043Z,97206.45
2018-11-06T03:16:52.836Z,97208.20
2018-11-06T03:17:55.866Z,97206.83
2018-11-06T03:18:58.942Z,97199.50
2018-11-06T03:20:02.005Z,97202.25
2018-11-06T03:21:04.887Z,97205.59
2018-11-06T03:22:07.871Z,97200.83
2018-11-06T03:23:10.669Z,97202.27
2018-11-06T03:24:13.425Z,97200.77
2018-11-06T03:25:16.286Z,97201.66
2018-11-06T03:26:19.095Z,97198.96
2018-11-06T03:27:21.814Z,97201.91
2018-11-06T03:28:24.576Z,97207.85
2018-11-06T03:29:27.298Z,97212.39
2018-11-06T03:30:30.748Z,97213.10
2018-11-06T03:31:33.520Z,97216.72
2018-11-06T03:32:36.258Z,97212.44
2018-11-06T03:33:39.067Z,97210.08
2018-11-06T03:34:41.781Z,97211.19
2018-11-06T03:35:44.554Z,97203.63
2018-11-06T03:36:47.591Z,97205.71
2018-11-06T03:37:50.385Z,97210.08
2018-11-06T03:38:53.103Z,97204.27
2018-11-06T03:39:56.649Z,97205.10
2018-11-06T03:40:59.384Z,97198.20
2018-11-06T03:42:02.134Z,97200.71
2018-11-06T03:43:05.213Z,97200.31
2018-11-06T03:44:08.526Z,97202.20
2018-11-06T03:45:12.506Z,97195.06
2018-11-06T03:46:15.311Z,97193.07
2018-11-06T03:47:18.070Z,97196.86
2018-11-06T03:48:20.844Z,97198.33
2018-11-06T03:49:24.454Z,97201.18
2018-11-06T03:50:27.219Z,97201.57
2018-11-06T03:51:30.077Z,97203.95
2018-11-06T03:52:33.630Z,97210.19
2018-11-06T03:53:36.390Z,97200.84
2018-11-06T03:54:39.117Z,97205.52
2018-11-06T03:55:42.169Z,97208.14
2018-11-06T03:56:44.994Z,97211.09
2018-11-06T03:57:47.749Z,97209.81
2018-11-06T03:58:50.499Z,97213.38
2018-11-06T03:59:53.247Z,97211.70
2018-11-06T04:00:56.218Z,97213.05
2018-11-06T04:01:59.605Z,97219.66
2018-11-06T04:03:02.359Z,97206.81
2018-11-06T04:04:05.363Z,97211.97
2018-11-06T04:05:08.257Z,97214.05
2018-11-06T04:06:11.021Z,97212.92
2018-11-06T04:07:13.763Z,97219.99
2018-11-06T04:08:16.772Z,97220.39
2018-11-06T04:09:19.560Z,97213.72
2018-11-06T04:10:22.326Z,97212.29
2018-11-06T04:11:25.222Z,97211.97
2018-11-06T04:12:27.978Z,97211.36
2018-11-06T04:13:30.741Z,97212.06
2018-11-06T04:14:33.774Z,97209.28
2018-11-06T04:15:38.157Z,97210.96
2018-11-06T04:16:42.923Z,97205.63
2018-11-06T04:17:45.885Z,97206.73
2018-11-06T04:18:48.633Z,97205.95
2018-11-06T04:19:51.369Z,97215.16
2018-11-06T04:20:54.503Z,97210.92
2018-11-06T04:21:57.260Z,97214.48
2018-11-06T04:23:00.160Z,97213.03
2018-11-06T04:24:03.064Z,97219.87
2018-11-06T04:25:05.911Z,97218.53
2018-11-06T04:26:08.773Z,97224.81
2018-11-06T04:27:12.234Z,97218.77
2018-11-06T04:28:15.018Z,97220.62
2018-11-06T04:29:17.761Z,97221.00
2018-11-06T04:30:20.519Z,97222.52
2018-11-06T04:31:23.327Z,97225.39
2018-11-06T04:32:26.093Z,97221.34
2018-11-06T04:33:29.163Z,97222.52
2018-11-06T04:34:31.932Z,97216.02
2018-11-06T04:35:34.898Z,97215.48
2018-11-06T04:36:39.272Z,97218.09
2018-11-06T04:37:42.589Z,97220.37
2018-11-06T04:38:45.320Z,97221.80
2018-11-06T04:39:48.763Z,97218.31
2018-11-06T04:40:51.749Z,97217.97
2018-11-06T04:41:55.797Z,97221.63
2018-11-06T04:42:59.017Z,97218.53
2018-11-06T04:44:01.795Z,97210.06
2018-11-06T04:45:06.191Z,97211.16
2018-11-06T04:46:09.105Z,97207.58
2018-11-06T04:47:12.150Z,97211.09
2018-11-06T04:48:14.916Z,97203.78
2018-11-06T04:49:18.456Z,97198.53
2018-11-06T04:50:21.180Z,97200.20
2018-11-06T04:51:23.898Z,97194.55
2018-11-06T04:52:26.681Z,97191.44
2018-11-06T04:53:30.623Z,97187.78
2018-11-06T04:54:33.380Z,97187.59
2018-11-06T04:55:36.178Z,97196.08
2018-11-06T04:56:40.942Z,97189.23
2018-11-06T04:57:44.279Z,97187.17
2018-11-06T04:58:47.028Z,97189.55
2018-11-06T04:59:49.840Z,97192.10
2018-11-06T05:00:52.611Z,97194.41
2018-11-06T05:01:55.500Z,97190.00
2018-11-06T05:02:59.143Z,97189.58
2018-11-06T05:04:01.893Z,97193.27
2018-11-06T05:05:04.732Z,97193.59
2018-11-06T05:06:07.481Z,97199.95
2018-11-06T05:07:10.251Z,97197.03
2018-11-06T05:08:13.942Z,97203.70
2018-11-06T05:09:17.531Z,97207.26
2018-11-06T05:10:20.296Z,97203.84
2018-11-06T05:11:23.720Z,97201.01
2018-11-06T05:12:26.456Z,97209.13
2018-11-06T05:13:29.194Z,97205.72
2018-11-06T05:14:32.778Z,97209.52
2018-11-06T05:15:37.371Z,97214.81
2018-11-06T05:16:40.251Z,97209.73
2018-11-06T05:17:43.320Z,97207.78
2018-11-06T05:18:46.349Z,97210.31
2018-11-06T05:19:49.095Z,97207.54
2018-11-06T05:20:51.874Z,97204.52
2018-11-06T05:21:55.600Z,97208.32
2018-11-06T05:22:58.368Z,97207.61
2018-11-06T05:24:01.098Z,97213.22
2018-11-06T05:25:03.887Z,97212.23
2018-11-06T05:26:06.683Z,97213.19
2018-11-06T05:27:09.833Z,97207.08
2018-11-06T05:28:12.578Z,97210.59
2018-11-06T05:29:15.678Z,97206.91
2018-11-06T05:30:18.648Z,97210.03
2018-11-06T05:31:21.428Z,97206.55
2018-11-06T05:32:24.195Z,97205.87
2018-11-06T05:33:27.567Z,97205.47
2018-11-06T05:34:30.703Z,97204.34
2018-11-06T05:35:33.440Z,97208.68
2018-11-06T05:36:36.181Z,97199.16
2018-11-06T05:37:39.107Z,97198.34
2018-11-06T05:38:41.878Z,97198.81
2018-11-06T05:39:44.901Z,97197.71
2018-11-06T05:40:47.646Z,97197.03
2018-11-06T05:41:50.666Z,97199.23
2018-11-06T05:42:53.419Z,97195.91
2018-11-06T05:43:56.207Z,97197.67
2018-11-06T05:44:59.128Z,97200.47
2018-11-06T05:46:01.882Z,97200.72
2018-11-06T05:47:07.742Z,97202.53
2018-11-06T05:48:12.062Z,97198.41
2018-11-06T05:49:15.489Z,97200.97
2018-11-06T05:50:18.276Z,97202.78
2018-11-06T05:51:21.035Z,97205.16
2018-11-06T05:52:24.660Z,97198.33
2018-11-06T05:53:27.507Z,97196.34
2018-11-06T05:54:30.457Z,97196.32
2018-11-06T05:55:34.979Z,97198.23
2018-11-06T05:56:37.743Z,97201.40
2018-11-06T05:57:40.464Z,97203.06
2018-11-06T05:58:43.669Z,97208.95
2018-11-06T05:59:46.405Z,97215.28
2018-11-06T06:00:49.358Z,97218.55
2018-11-06T06:01:52.164Z,97213.37
2018-11-06T06:02:54.904Z,97214.96
2018-11-06T06:03:57.632Z,97218.05
2018-11-06T06:05:00.678Z,97211.48
2018-11-06T06:06:04.212Z,97214.57
2018-11-06T06:07:06.966Z,97212.27
2018-11-06T06:08:09.839Z,97208.97
2018-11-06T06:09:12.616Z,97208.19
2018-11-06T06:10:17.282Z,97211.52
2018-11-06T06:11:20.009Z,97212.87
2018-11-06T06:12:22.959Z,97208.89
2018-11-06T06:13:26.593Z,97208.33
2018-11-06T06:14:29.469Z,97206.30
2018-11-06T06:15:32.321Z,97208.72
2018-11-06T06:16:35.752Z,97208.08
2018-11-06T06:17:38.518Z,97206.27
2018-11-06T06:18:41.251Z,97214.97
2018-11-06T06:20:52.622Z,97215.84
2018-11-06T06:21:56.249Z,97209.03
2018-11-06T06:23:01.028Z,97212.48
2018-11-06T06:24:03.772Z,97212.66
2018-11-06T06:25:06.718Z,97212.73
2018-11-06T06:26:09.895Z,97218.94
2018-11-06T06:27:13.487Z,97216.09
2018-11-06T06:28:16.302Z,97215.46
2018-11-06T06:29:19.478Z,97213.33
2018-11-06T06:30:22.236Z,97214.53
2018-11-06T06:31:28.611Z,97210.34
2018-11-06T06:46:06.897Z,97199.78
2018-11-06T06:47:09.935Z,97199.53
2018-11-06T06:48:12.698Z,97198.09
2018-11-06T06:49:15.532Z,97202.23
2018-11-06T06:50:19.426Z,97201.53
2018-11-06T06:51:22.429Z,97197.65
2018-11-06T06:52:25.203Z,97194.38
2018-11-06T06:53:28.154Z,97201.13
2018-11-06T06:54:31.057Z,97201.61
2018-11-06T06:55:33.705Z,97199.68
2018-11-06T06:56:36.730Z,97202.78
2018-11-06T06:57:41.293Z,97205.23
2018-11-06T06:58:45.338Z,97205.73
2018-11-06T06:59:48.961Z,97202.94
2018-11-06T07:00:53.704Z,97204.42
2018-11-06T07:01:57.065Z,97206.47
2018-11-06T07:03:01.513Z,97202.27
2018-11-06T07:04:05.359Z,97200.70
2018-11-06T07:05:09.447Z,97202.23
2018-11-06T07:06:12.783Z,97205.42
2018-11-06T07:07:16.015Z,97206.52
2018-11-06T07:08:19.085Z,97212.49
2018-11-06T07:09:23.100Z,97212.78
2018-11-06T07:10:26.127Z,97214.82
2018-11-06T07:11:30.586Z,97211.65
2018-11-06T07:12:33.570Z,97210.88
2018-11-06T07:13:37.455Z,97217.33
2018-11-06T07:14:40.213Z,97211.16
2018-11-06T07:15:43.308Z,97214.07
2018-11-06T07:16:46.590Z,97206.05
2018-11-06T07:17:50.003Z,97206.30
2018-11-06T07:18:52.758Z,97211.11
2018-11-06T07:19:55.821Z,97211.98
2018-11-06T07:21:00.440Z,97214.07
2018-11-06T07:22:03.794Z,97220.50
2018-11-06T07:23:06.852Z,97221.69
2018-11-06T07:24:09.696Z,97220.44
2018-11-06T07:25:13.632Z,97222.50
2018-11-06T07:26:16.685Z,97223.31
2018-11-06T07:27:20.499Z,97226.64
2018-11-06T07:28:23.784Z,97227.53
2018-11-06T07:29:26.577Z,97231.35
2018-11-06T07:30:29.298Z,97232.09
2018-11-06T07:31:32.869Z,97233.44
2018-11-06T07:32:35.627Z,97227.70
2018-11-06T07:33:41.244Z,97225.50
2018-11-06T07:34:45.463Z,97227.22
2018-11-06T07:35:49.517Z,97223.41
2018-11-06T07:36:52.363Z,97226.69
2018-11-06T07:37:55.316Z,97228.12
2018-11-06T07:38:59.966Z,97225.50
2018-11-06T07:40:02.786Z,97223.49
2018-11-06T07:41:06.401Z,97226.77
2018-11-06T07:42:09.253Z,97226.03
2018-11-06T07:43:13.473Z,97228.73
2018-11-06T07:44:16.220Z,97224.84
2018-11-06T07:45:21.427Z,97226.97
2018-11-06T07:46:25.594Z,97228.15
2018-11-06T07:47:29.207Z,97230.23
2018-11-06T07:48:31.968Z,97233.46
2018-11-06T07:49:34.714Z,97234.88
2018-11-06T07:50:39.037Z,97235.37
2018-11-06T07:51:41.805Z,97242.05
2018-11-06T07:52:44.950Z,97240.11
2018-11-06T07:53:51.335Z,97242.79
2018-11-06T07:54:54.402Z,97247.31
2018-11-06T07:55:57.260Z,97252.22
2018-11-06T07:57:00.704Z,97246.62
2018-11-06T07:58:03.477Z,97250.56
2018-11-06T07:59:09.940Z,97256.87
2018-11-06T08:00:15.325Z,97253.20
2018-11-06T08:01:19.006Z,97253.75
2018-11-06T08:02:21.972Z,97257.16
2018-11-06T08:03:25.218Z,97256.58
2018-11-06T08:04:29.964Z,97261.09
2018-11-06T08:05:32.921Z,97259.83
2018-11-06T08:06:36.131Z,97261.45
2018-11-06T08:07:38.896Z,97257.10
2018-11-06T08:08:41.739Z,97261.47
2018-11-06T08:09:45.409Z,97253.82
2018-11-06T08:10:48.989Z,97256.94
2018-11-06T08:11:51.903Z,97260.74
2018-11-06T08:12:55.955Z,97262.88
2018-11-06T08:13:59.160Z,97251.77
2018-11-06T08:15:02.213Z,97262.74
2018-11-06T08:16:05.014Z,97261.59
2018-11-06T08:17:08.109Z,97251.16
2018-11-06T08:18:10.900Z,97246.11
2018-11-06T08:19:14.029Z,97250.38
2018-11-06T08:20:16.901Z,97241.98
2018-11-06T08:21:19.692Z,97244.92
2018-11-06T08:22:22.483Z,97245.23
2018-11-06T08:23:25.476Z,97241.80
2018-11-06T08:24:33.465Z,97242.52
2018-11-06T08:25:41.772Z,97242.45
2018-11-06T08:26:45.443Z,97240.86
2018-11-06T08:27:48.830Z,97239.93
2018-11-06T08:28:52.073Z,97238.25
2018-11-06T08:29:55.619Z,97238.78
2018-11-06T08:31:00.917Z,97232.45
2018-11-06T08:32:04.605Z,97239.81
2018-11-06T08:33:13.893Z,97231.12
2018-11-06T08:34:28.543Z,97233.04
2018-11-06T08:40:01.848Z,97228.17
2018-11-06T08:41:06.299Z,97233.25
2018-11-06T08:43:25.465Z,97230.56
2018-11-06T08:44:30.630Z,97232.14
2018-11-06T08:46:51.292Z,97221.08
2018-11-06T08:47:55.356Z,97215.98
2018-11-06T08:48:58.261Z,97221.25
2018-11-06T08:50:01.076Z,97216.81
2018-11-06T08:51:03.919Z,97214.38
2018-11-06T08:52:07.311Z,97215.98
2018-11-06T08:54:35.887Z,97218.01
2018-11-06T08:55:43.916Z,97217.38
2018-11-06T08:56:54.828Z,97218.37
2018-11-06T08:58:14.355Z,97220.64
2018-11-06T08:59:26.766Z,97219.74
2018-11-06T09:00:29.529Z,97217.48
2018-11-06T09:01:35.724Z,97218.18
2018-11-06T09:02:38.726Z,97218.58
2018-11-06T09:03:41.811Z,97223.06
2018-11-06T09:04:45.338Z,97220.19
2018-11-06T09:05:48.138Z,97224.03
2018-11-06T09:06:51.843Z,97223.30
2018-11-06T09:07:54.820Z,97217.14
2018-11-06T09:08:59.164Z,97221.81
2018-11-06T09:10:02.011Z,97223.41
2018-11-06T09:11:05.692Z,97225.41
2018-11-06T09:12:08.683Z,97225.42
2018-11-06T09:13:11.507Z,97223.36
2018-11-06T09:14:14.290Z,97217.81
2018-11-06T09:15:17.798Z,97224.77
2018-11-06T09:16:21.023Z,97227.40
2018-11-06T09:17:27.439Z,97227.03
2018-11-06T09:18:30.459Z,97231.63
2018-11-06T09:19:33.456Z,97223.80
2018-11-06T09:20:36.338Z,97229.59
2018-11-06T09:21:39.698Z,97223.92
2018-11-06T09:22:43.312Z,97226.67
2018-11-06T09:23:47.966Z,97226.98
2018-11-06T09:24:51.115Z,97223.62
2018-11-06T09:25:53.902Z,97234.40
2018-11-06T09:26:56.690Z,97230.96
2018-11-06T09:28:02.229Z,97227.09
2018-11-06T09:29:05.443Z,97221.64
2018-11-06T09:30:09.278Z,97227.42
2018-11-06T09:31:13.084Z,97221.00
2018-11-06T09:32:16.323Z,97213.45
2018-11-06T09:33:20.291Z,97213.55
2018-11-06T09:34:23.269Z,97208.52
2018-11-06T09:35:26.322Z,97214.25
2018-11-06T09:36:30.737Z,97211.18
2018-11-06T09:37:33.560Z,97212.31
2018-11-06T09:38:36.936Z,97215.75
2018-11-06T09:39:40.045Z,97209.88
2018-11-06T09:40:43.733Z,97212.77
2018-11-06T09:41:47.697Z,97211.27
2018-11-06T09:42:53.130Z,97210.04
2018-11-06T09:43:56.025Z,97206.50
2018-11-06T09:44:59.112Z,97208.91
2018-11-06T09:46:03.295Z,97205.83
2018-11-06T09:47:06.965Z,97210.78
2018-11-06T09:48:18.170Z,97200.76
2018-11-06T09:49:21.689Z,97202.08
2018-11-06T09:50:25.988Z,97204.20
2018-11-06T09:51:28.959Z,97199.03
2018-11-06T09:52:40.884Z,97199.72
2018-11-06T09:53:52.970Z,97199.81
2018-11-06T09:55:01.054Z,97197.78
2018-11-06T09:56:04.481Z,97197.33
2018-11-06T09:57:10.275Z,97195.71
2018-11-06T09:58:13.833Z,97193.34
2018-11-06T09:59:18.333Z,97189.22
2018-11-06T10:00:23.665Z,97195.77
2018-11-06T10:01:29.203Z,97189.98
2018-11-06T10:02:41.576Z,97192.88
2018-11-06T10:03:45.486Z,97184.11
2018-11-06T10:04:53.586Z,97189.89
2018-11-06T10:06:01.212Z,97195.61
2018-11-06T10:07:07.593Z,97194.78
2018-11-06T10:08:11.548Z,97195.23
2018-11-06T10:09:18.074Z,97197.66
2018-11-06T10:10:22.987Z,97188.68
2018-11-06T10:11:27.448Z,97188.45
2018-11-06T10:12:30.710Z,97192.22
2018-11-06T10:13:34.861Z,97185.39
2018-11-06T10:14:44.659Z,97190.09
2018-11-06T10:15:49.364Z,97180.05
2018-11-06T10:16:52.328Z,97184.45
2018-11-06T10:17:57.227Z,97186.05
2018-11-06T10:19:00.338Z,97185.04
2018-11-06T10:20:03.625Z,97178.52
2018-11-06T10:21:07.064Z,97179.58
2018-11-06T10:22:09.913Z,97181.75
2018-11-06T10:23:12.770Z,97171.02
2018-11-06T10:24:15.859Z,97178.00
2018-11-06T10:25:18.660Z,97179.27
2018-11-06T10:26:24.344Z,97171.42
2018-11-06T10:27:27.120Z,97174.25
2018-11-06T10:28:34.553Z,97177.59
2018-11-06T10:29:37.317Z,97175.81
2018-11-06T10:30:40.742Z,97175.22
2018-11-06T10:31:44.087Z,97171.39
2018-11-06T10:32:48.444Z,97174.72
2018-11-06T10:33:52.412Z,97180.98
2018-11-06T10:34:55.379Z,97179.11
2018-11-06T10:36:00.929Z,97179.90
2018-11-06T10:37:04.104Z,97178.57
2018-11-06T10:38:07.487Z,97180.33
2018-11-06T10:39:13.754Z,97179.62
2018-11-06T10:40:23.657Z,97168.42
2018-11-06T10:41:26.755Z,97177.03
2018-11-06T10:42:31.710Z,97169.08
2018-11-06T10:43:34.710Z,97171.36
2018-11-06T10:44:39.428Z,97174.08
2018-11-06T10:45:45.128Z,97171.13
2018-11-06T10:46:48.495Z,97167.85
2018-11-06T10:47:54.679Z,97173.23
2018-11-06T10:48:59.326Z,97170.91
2018-11-06T10:50:02.224Z,97163.16
2018-11-06T10:51:05.396Z,97172.43
2018-11-06T10:52:08.146Z,97165.00
2018-11-06T10:53:11.683Z,97167.52
2018-11-06T10:54:14.652Z,97165.90
2018-11-06T10:55:21.192Z,97169.03
2018-11-06T10:56:24.344Z,97165.97
2018-11-06T10:57:28.270Z,97174.05
2018-11-06T10:58:32.566Z,97170.91
2018-11-06T10:59:35.383Z,97168.02
2018-11-06T11:00:43.009Z,97172.34
2018-11-06T11:01:50.769Z,97168.14
2018-11-06T11:02:58.412Z,97172.09
2018-11-06T11:04:06.473Z,97172.77
2018-11-06T11:05:09.397Z,97171.53
2018-11-06T11:06:12.324Z,97174.16
2018-11-06T11:07:15.742Z,97169.48
2018-11-06T11:08:18.885Z,97174.75
2018-11-06T11:09:21.758Z,97172.39
2018-11-06T11:10:25.598Z,97174.85
2018-11-06T11:11:28.663Z,97168.84
2018-11-06T11:12:31.499Z,97171.95
2018-11-06T11:13:35.383Z,97176.95
2018-11-06T11:14:40.213Z,97171.42
2018-11-06T11:15:44.483Z,97174.36
2018-11-06T11:16:47.813Z,97163.91
2018-11-06T11:17:51.758Z,97172.68
2018-11-06T11:18:54.562Z,97167.02
2018-11-06T11:20:03.763Z,97166.11
2018-11-06T11:21:06.550Z,97164.34
2018-11-06T11:22:09.363Z,97155.38
2018-11-06T11:23:14.293Z,97151.00
2018-11-06T11:24:18.626Z,97159.21
2018-11-06T11:25:23.862Z,97164.03
2018-11-06T11:26:26.745Z,97155.39
2018-11-06T11:27:30.563Z,97156.92
2018-11-06T11:28:33.678Z,97159.42
2018-11-06T11:29:37.132Z,97165.44
2018-11-06T11:42:54.422Z,97145.43
2018-11-06T11:43:58.612Z,97138.80
2018-11-06T11:45:03.547Z,97131.44
2018-11-06T11:46:06.361Z,97129.42
2018-11-06T11:47:13.534Z,97129.37
2018-11-06T11:48:20.532Z,97121.70
2018-11-06T11:49:23.874Z,97128.88
2018-11-06T11:50:27.443Z,97124.80
2018-11-06T11:51:31.655Z,97126.56
2018-11-06T11:52:36.725Z,97120.17
2018-11-06T11:53:40.742Z,97122.97
2018-11-06T11:54:44.389Z,97127.29
2018-11-06T11:55:49.099Z,97120.66
2018-11-06T11:56:52.925Z,97124.83
2018-11-06T11:57:56.935Z,97121.53
2018-11-06T11:59:00.483Z,97125.05
2018-11-06T12:00:03.438Z,97121.92
2018-11-06T12:01:07.174Z,97120.20
2018-11-06T12:02:11.152Z,97121.42
2018-11-06T12:03:19.176Z,97121.52
2018-11-06T12:04:22.234Z,97117.80
2018-11-06T12:05:26.343Z,97111.53
2018-11-06T12:06:29.834Z,97111.58
2018-11-06T12:07:33.045Z,97102.20
2018-11-06T12:08:36.721Z,97102.79
2018-11-06T12:09:40.625Z,97101.86
2018-11-06T12:10:43.418Z,97096.95
2018-11-06T12:11:46.251Z,97100.48
2018-11-06T12:12:49.304Z,97104.23
2018-11-06T12:13:52.533Z,97096.95
2018-11-06T12:14:55.310Z,97102.03
2018-11-06T12:15:59.078Z,97092.62
2018-11-06T12:17:04.728Z,97093.81
2018-11-06T12:18:08.505Z,97099.49
2018-11-06T12:19:11.474Z,97091.64
2018-11-06T12:20:16.476Z,97097.73
2018-11-06T12:21:19.861Z,97095.17
2018-11-06T12:22:24.217Z,97091.66
2018-11-06T12:23:27.017Z,97087.70
2018-11-06T12:24:30.533Z,97086.29
2018-11-06T12:25:37.757Z,97089.80
2018-11-06T12:26:40.677Z,97085.66
2018-11-06T12:27:44.829Z,97083.72
2018-11-06T12:28:48.582Z,97089.08
2018-11-06T12:29:51.395Z,97080.85
2018-11-06T12:30:55.326Z,97080.05
2018-11-06T12:31:58.220Z,97083.94
2018-11-06T12:33:01.626Z,97076.98
2018-11-06T12:34:04.560Z,97079.95
2018-11-06T12:35:08.472Z,97079.44
2018-11-06T12:36:12.036Z,97075.92
2018-11-06T12:37:15.783Z,97079.04
2018-11-06T12:38:19.194Z,97075.27
2018-11-06T12:39:25.319Z,97073.73
2018-11-06T12:40:28.337Z,97073.97
2018-11-06T12:41:34.409Z,97072.59
2018-11-06T12:42:38.004Z,97076.52
2018-11-06T12:43:41.639Z,97075.72
2018-11-06T12:44:44.603Z,97077.49
2018-11-06T12:45:49.104Z,97076.91
2018-11-06T12:46:52.012Z,97074.14
2018-11-06T12:47:54.763Z,97076.52
2018-11-06T12:48:57.777Z,97073.73
2018-11-06T12:50:02.273Z,97071.79
2018-11-06T12:51:06.500Z,97069.61
2018-11-06T12:52:10.564Z,97071.98
2018-11-06T12:53:14.561Z,97070.41
2018-11-06T12:54:17.952Z,97069.41
2018-11-06T12:55:21.613Z,97063.32
2018-11-06T12:56:28.006Z,97062.31
2018-11-06T12:57:32.209Z,97056.80
2018-11-06T12:58:37.092Z,97061.95
2018-11-06T12:59:42.863Z,97060.98
2018-11-06T13:00:46.521Z,97049.59
2018-11-06T13:01:52.008Z,97059.80
2018-11-06T13:02:55.754Z,97060.98
2018-11-06T13:03:59.852Z,97059.60
2018-11-06T13:05:02.822Z,97059.02